createdAt,value
2019-03-01T00:03:08.800Z,5.10
2019-03-01T00:08:16.358Z,5.77
2019-03-01T00:13:59.348Z,4.87
2019-03-01T00:19:47.221Z,4.80
2019-03-01T00:25:05.515Z,5.40
2019-03-01T00:30:45.441Z,5.57
2019-03-01T00:36:18.066Z,4.70
2019-03-01T00:42:02.790Z,4.87
2019-03-01T00:47:07.967Z,4.37
2019-03-01T00:52:16.181Z,4.63
2019-03-01T00:57:21.355Z,4.70
2019-03-01T01:02:26.818Z,4.93
2019-03-01T01:07:31.840Z,4.40
2019-03-01T01:12:36.995Z,4.50
2019-03-01T01:17:42.696Z,4.50
2019-03-01T01:22:47.792Z,4.30
2019-03-01T01:27:52.843Z,4.67
2019-03-01T01:32:57.941Z,4.70
2019-03-01T01:38:02.863Z,4.20
2019-03-01T01:43:08.133Z,4.70
2019-03-01T01:48:14.416Z,4.97
2019-03-01T01:53:19.576Z,4.50
2019-03-01T01:58:24.628Z,4.60
2019-03-01T02:03:29.785Z,4.33
2019-03-01T02:08:34.573Z,5.03
2019-03-01T02:13:39.593Z,5.20
2019-03-01T02:18:46.175Z,5.47
2019-03-01T02:23:51.095Z,5.00
2019-03-01T02:28:56.322Z,4.70
2019-03-01T02:34:01.420Z,4.73
2019-03-01T02:39:06.415Z,4.83
2019-03-01T02:44:11.890Z,4.70
2019-03-01T02:49:16.845Z,5.60
2019-03-01T02:54:22.021Z,5.33
2019-03-01T02:59:26.001Z,5.57
2019-03-01T03:04:31.155Z,4.33
2019-03-01T03:09:35.934Z,4.60
2019-03-01T03:14:40.998Z,4.93
2019-03-01T03:19:46.358Z,4.10
2019-03-01T03:24:51.131Z,4.90
2019-03-01T03:29:56.686Z,4.23
2019-03-01T03:35:01.864Z,5.23
2019-03-01T03:40:08.675Z,5.50
2019-03-01T03:45:14.314Z,5.23
2019-03-01T03:50:19.207Z,5.70
2019-03-01T03:55:24.411Z,5.57
2019-03-01T04:00:29.001Z,6.00
2019-03-01T04:05:32.554Z,5.47
2019-03-01T04:10:37.002Z,6.13
2019-03-01T04:15:42.380Z,5.93
2019-03-01T04:20:47.041Z,6.07
2019-03-01T04:25:52.119Z,6.60
2019-03-01T04:30:57.519Z,6.33
2019-03-01T04:36:02.330Z,7.00
2019-03-01T04:41:08.050Z,7.00
2019-03-01T04:46:13.030Z,7.10
2019-03-01T04:51:17.578Z,6.73
2019-03-01T04:56:21.900Z,6.33
2019-03-01T05:01:26.362Z,7.10
2019-03-01T05:06:30.662Z,6.50
2019-03-01T05:11:35.685Z,5.93
2019-03-01T05:16:40.212Z,5.70
2019-03-01T05:21:44.430Z,5.80
2019-03-01T05:26:49.032Z,5.60
2019-03-01T05:31:52.514Z,6.10
2019-03-01T05:36:58.068Z,5.33
2019-03-01T05:42:03.495Z,5.20
2019-03-01T05:47:08.858Z,5.50
2019-03-01T05:52:13.921Z,5.17
2019-03-01T05:57:19.013Z,5.83
2019-03-01T06:02:37.280Z,6.20
2019-03-01T06:08:25.827Z,5.50
2019-03-01T06:14:05.271Z,6.60
2019-03-01T06:19:33.854Z,5.90
2019-03-01T06:24:50.426Z,6.43
2019-03-01T06:30:09.863Z,5.90
2019-03-01T06:35:48.327Z,6.03
2019-03-01T06:41:31.990Z,5.80
2019-03-01T06:47:05.634Z,6.00
2019-03-01T06:52:10.107Z,7.23
2019-03-01T06:57:14.685Z,7.13
2019-03-01T07:02:25.935Z,6.40
2019-03-01T07:07:31.350Z,6.40
2019-03-01T07:12:36.859Z,7.10
2019-03-01T07:17:42.938Z,7.13
2019-03-01T07:22:48.303Z,7.33
2019-03-01T07:27:53.628Z,7.13
2019-03-01T07:32:58.648Z,6.90
2019-03-01T07:38:04.170Z,6.83
2019-03-01T07:43:09.162Z,6.20
2019-03-01T07:48:14.411Z,7.27
2019-03-01T07:53:19.415Z,6.30
2019-03-01T07:58:25.724Z,6.87
2019-03-01T08:03:32.593Z,5.33
2019-03-01T08:08:39.094Z,5.97
2019-03-01T08:13:45.272Z,5.60
2019-03-01T08:18:50.728Z,5.77
2019-03-01T08:23:55.881Z,5.37
2019-03-01T08:29:01.075Z,6.10
2019-03-01T08:34:07.050Z,5.17
2019-03-01T08:39:12.684Z,5.80
2019-03-01T08:44:19.406Z,5.90
2019-03-01T08:49:24.748Z,5.57
2019-03-01T08:54:31.112Z,5.10
2019-03-01T08:59:36.809Z,4.37
2019-03-01T09:04:50.720Z,4.47
2019-03-01T09:09:50.365Z,4.83
2019-03-01T09:14:55.484Z,4.40
2019-03-01T09:20:02.460Z,4.10
2019-03-01T09:25:10.132Z,4.20
2019-03-01T09:30:17.907Z,4.70
2019-03-01T09:35:46.547Z,4.63
2019-03-01T09:40:52.002Z,4.53
2019-03-01T09:45:56.979Z,5.23
2019-03-01T09:51:07.341Z,5.00
2019-03-01T09:56:12.947Z,5.00
2019-03-01T10:01:19.399Z,4.60
2019-03-01T10:06:24.601Z,4.60
2019-03-01T10:11:29.140Z,5.20
2019-03-01T10:16:33.604Z,4.47
2019-03-01T10:21:38.248Z,4.13
2019-03-01T10:26:42.682Z,4.53
2019-03-01T10:31:47.127Z,3.00
2019-03-01T10:36:51.703Z,2.53
2019-03-01T10:41:56.930Z,2.50
2019-03-01T10:47:01.465Z,2.47
2019-03-01T10:52:05.856Z,2.50
2019-03-01T10:57:11.259Z,2.37
2019-03-01T11:02:15.641Z,3.67
2019-03-01T11:07:21.130Z,4.43
2019-03-01T11:12:26.059Z,6.47
2019-03-01T11:17:32.188Z,4.87
2019-03-01T11:22:37.613Z,4.07
2019-03-01T11:27:42.912Z,2.87
2019-03-01T11:32:48.053Z,3.27
2019-03-01T11:37:54.034Z,3.37
2019-03-01T11:42:59.003Z,3.60
2019-03-01T11:48:04.852Z,3.90
2019-03-01T11:53:10.938Z,4.37
2019-03-01T11:58:16.534Z,5.47
2019-03-01T12:03:32.019Z,6.60
2019-03-01T12:08:37.687Z,6.80
2019-03-01T12:13:43.200Z,8.17
2019-03-01T12:18:50.176Z,8.27
2019-03-01T12:23:56.174Z,10.30
2019-03-01T12:29:01.238Z,11.07
2019-03-01T12:34:06.525Z,12.40
2019-03-01T12:39:12.240Z,13.30
2019-03-01T12:44:19.177Z,13.60
2019-03-01T12:49:24.999Z,11.30
2019-03-01T12:54:30.278Z,12.80
2019-03-01T12:59:35.900Z,11.70
2019-03-01T13:04:40.849Z,10.47
2019-03-01T13:09:46.693Z,9.60
2019-03-01T13:14:52.387Z,12.47
2019-03-01T13:20:01.029Z,15.30
2019-03-01T13:25:06.414Z,16.70
2019-03-01T13:30:14.455Z,16.57
2019-03-01T13:35:22.225Z,18.47
2019-03-01T13:40:27.541Z,18.27
2019-03-01T13:45:33.486Z,18.43
2019-03-01T13:50:41.583Z,20.13
2019-03-01T13:55:46.175Z,21.10
2019-03-01T14:00:51.565Z,19.87
2019-03-01T14:05:56.241Z,21.13
2019-03-01T14:11:00.848Z,21.63
2019-03-01T14:16:07.089Z,22.50
2019-03-01T14:21:11.546Z,22.50
2019-03-01T14:26:18.477Z,24.90
2019-03-01T14:31:22.040Z,26.70
2019-03-01T14:36:26.551Z,30.20
2019-03-01T14:41:34.210Z,33.00
2019-03-01T14:46:37.135Z,30.77
2019-03-01T14:51:46.535Z,33.33
2019-03-01T14:56:54.759Z,33.90
2019-03-01T15:02:43.313Z,34.83
2019-03-01T15:07:48.451Z,34.37
2019-03-01T15:12:57.591Z,33.10
2019-03-01T15:18:00.929Z,35.10
2019-03-01T15:23:17.149Z,34.47
2019-03-01T15:28:23.043Z,33.60
2019-03-01T15:33:28.574Z,31.23
2019-03-01T15:38:34.009Z,30.37
2019-03-01T15:43:38.941Z,29.90
2019-03-01T15:48:44.150Z,28.97
2019-03-01T15:53:49.449Z,30.07
2019-03-01T15:58:55.439Z,29.90
2019-03-01T16:04:00.809Z,27.70
2019-03-01T16:09:13.724Z,28.50
2019-03-01T16:14:20.996Z,28.07
2019-03-01T16:19:27.342Z,28.03
2019-03-01T16:24:32.011Z,28.80
2019-03-01T16:29:38.839Z,27.70
2019-03-01T16:34:44.149Z,28.20
2019-03-01T16:39:50.546Z,26.40
2019-03-01T16:44:55.685Z,27.27
2019-03-01T16:50:02.908Z,28.00
2019-03-01T16:55:15.555Z,26.30
2019-03-01T17:00:20.753Z,28.17
2019-03-01T17:05:26.181Z,28.00
2019-03-01T17:10:31.375Z,28.73
2019-03-01T17:15:36.349Z,27.83
2019-03-01T17:20:39.935Z,27.80
2019-03-01T17:25:44.698Z,28.07
2019-03-01T17:30:50.849Z,29.33
2019-03-01T17:35:53.664Z,27.83
2019-03-01T17:40:57.357Z,26.93
2019-03-01T17:46:02.533Z,28.97
2019-03-01T17:51:06.946Z,27.27
2019-03-01T17:56:10.721Z,27.33
2019-03-01T18:01:14.646Z,26.73
2019-03-01T18:06:19.597Z,27.83
2019-03-01T18:11:26.074Z,28.20
2019-03-01T18:16:31.118Z,28.17
2019-03-01T18:21:35.403Z,26.80
2019-03-01T18:26:40.996Z,26.70
2019-03-01T18:31:45.709Z,26.27
2019-03-01T18:36:49.973Z,26.07
2019-03-01T18:41:54.139Z,25.37
2019-03-01T18:46:58.450Z,25.67
2019-03-01T18:52:02.322Z,26.60
2019-03-01T18:57:08.646Z,25.30
2019-03-01T19:02:14.143Z,24.00
2019-03-01T19:07:19.343Z,25.50
2019-03-01T19:12:24.542Z,26.43
2019-03-01T19:17:29.904Z,25.30
2019-03-01T19:22:35.190Z,25.10
2019-03-01T19:27:41.616Z,27.20
2019-03-01T19:32:47.310Z,25.20
2019-03-01T19:37:53.260Z,25.73
2019-03-01T19:42:58.572Z,27.67
2019-03-01T19:48:03.597Z,26.63
2019-03-01T19:53:12.404Z,27.23
2019-03-01T19:58:17.565Z,28.70
2019-03-01T20:03:22.646Z,26.60
2019-03-01T20:08:29.722Z,28.90
2019-03-01T20:13:34.943Z,32.00
2019-03-01T20:18:41.727Z,30.17
2019-03-01T20:23:47.372Z,19.83
2019-03-01T20:28:54.115Z,12.77
2019-03-01T20:34:01.867Z,11.93
2019-03-01T20:39:07.168Z,13.00
2019-03-01T20:44:14.699Z,13.20
2019-03-01T20:49:20.795Z,12.97
2019-03-01T20:54:26.995Z,10.10
2019-03-01T20:59:32.448Z,9.50
2019-03-01T21:04:40.434Z,9.40
2019-03-01T21:09:44.562Z,10.43
2019-03-01T21:14:50.012Z,13.33
2019-03-01T21:19:55.317Z,15.00
2019-03-01T21:25:03.135Z,14.80
2019-03-01T21:30:12.281Z,15.13
2019-03-01T21:35:18.967Z,16.97
2019-03-01T21:40:24.218Z,16.63
2019-03-01T21:45:27.814Z,17.40
2019-03-01T21:50:31.223Z,17.17
2019-03-01T21:55:37.156Z,16.40
2019-03-01T22:00:42.390Z,16.10
2019-03-01T22:05:48.577Z,16.33
2019-03-01T22:10:54.411Z,15.17
2019-03-01T22:16:01.061Z,16.20
2019-03-01T22:21:06.702Z,15.80
2019-03-01T22:26:13.619Z,16.43
2019-03-01T22:31:18.492Z,17.20
2019-03-01T22:36:22.792Z,16.40
2019-03-01T22:41:26.938Z,16.97
2019-03-01T22:46:30.911Z,16.93
2019-03-01T22:51:35.269Z,16.53
2019-03-01T22:56:39.669Z,16.80
2019-03-01T23:01:48.332Z,16.60
2019-03-01T23:06:53.180Z,16.70
2019-03-01T23:11:57.872Z,16.63
2019-03-01T23:17:01.950Z,17.87
2019-03-01T23:22:07.583Z,17.87
2019-03-01T23:27:13.856Z,17.77
2019-03-01T23:32:20.001Z,18.17
2019-03-01T23:37:24.672Z,18.20
2019-03-01T23:42:29.960Z,17.87
2019-03-01T23:47:38.290Z,17.90
2019-03-01T23:53:00.656Z,17.57
2019-03-01T23:58:06.395Z,17.37
